Time;durP1;ratioP1;P1;durP2;ratioP2;P2;SDS_P1;SDS_P2;PMS_P1;PMS_P2;Temp;Humidity;BMP_temperature;BMP_pressure;BME280_temperature;BME280_humidity;BME280_pressure;Samples;Min_cycle;Max_cycle;Signal;HPM_P1;HPM_P2
2023/03/18 00:01:15;;;;;;;13.48;9.00;;;;;;;;;;4961334;29;20244;-84
2023/03/18 00:03:48;;;;;;;15.60;9.73;;;;;;;;;;4942004;29;20193;-85
2023/03/18 00:06:18;;;;;;;13.77;9.23;;;;;;;;;;4942136;29;20299;-84
2023/03/18 00:08:47;;;;;;;9.57;7.95;;;;;;;;;;4942051;28;20805;-84
2023/03/18 00:11:20;;;;;;;11.50;8.60;;;;;;;;;;4950006;29;20271;-84
2023/03/18 00:13:48;;;;;;;10.70;8.80;;;;;;;;;;4961473;28;20255;-85
2023/03/18 00:16:17;;;;;;;14.45;8.55;;;;;;;;;;4982491;28;20269;-84
2023/03/18 00:18:46;;;;;;;8.90;8.00;;;;;;;;;;4965464;28;20283;-85
2023/03/18 00:21:15;;;;;;;13.57;9.20;;;;;;;;;;4965305;28;20645;-85
2023/03/18 00:23:44;;;;;;;12.63;9.20;;;;;;;;;;4964938;28;20255;-85
2023/03/18 00:26:14;;;;;;;10.65;8.18;;;;;;;;;;4981763;28;20749;-85
2023/03/18 00:28:45;;;;;;;14.25;7.55;;;;;;;;;;4982188;28;20730;-85
2023/03/18 00:31:14;;;;;;;9.35;7.72;;;;;;;;;;4982264;28;20289;-85
2023/03/18 00:33:44;;;;;;;8.85;7.95;;;;;;;;;;4964850;28;20341;-84
2023/03/18 00:36:15;;;;;;;12.95;8.27;;;;;;;;;;4950383;28;20184;-85
2023/03/18 00:38:44;;;;;;;10.15;8.30;;;;;;;;;;4965968;28;20698;-85
2023/03/18 00:41:14;;;;;;;10.95;8.60;;;;;;;;;;4950043;28;20331;-85
2023/03/18 00:43:51;;;;;;;11.35;9.40;;;;;;;;;;4983047;28;20322;-84
2023/03/18 00:46:21;;;;;;;10.90;8.55;;;;;;;;;;4982658;28;20267;-85
2023/03/18 00:48:49;;;;;;;12.00;8.55;;;;;;;;;;4965015;28;20274;-84
2023/03/18 00:51:19;;;;;;;11.45;9.23;;;;;;;;;;4964977;28;20285;-84
2023/03/18 00:53:49;;;;;;;12.05;8.95;;;;;;;;;;4965305;28;20203;-85
2023/03/18 00:56:18;;;;;;;9.68;8.45;;;;;;;;;;4964846;28;20203;-86
2023/03/18 00:58:49;;;;;;;11.65;8.15;;;;;;;;;;4981906;28;20306;-86
2023/03/18 01:01:18;;;;;;;13.23;10.15;;;;;;;;;;4965238;28;20277;-86
2023/03/18 01:03:48;;;;;;;13.55;9.35;;;;;;;;;;4948180;28;20290;-85
2023/03/18 01:06:23;;;;;;;11.57;8.55;;;;;;;;;;4982500;28;20282;-86
2023/03/18 01:08:53;;;;;;;9.88;8.88;;;;;;;;;;4952828;28;20230;-85
2023/03/18 01:11:22;;;;;;;15.23;9.45;;;;;;;;;;4947247;29;20275;-85
2023/03/18 01:13:53;;;;;;;10.00;7.35;;;;;;;;;;4959899;28;20271;-85
2023/03/18 01:16:22;;;;;;;8.25;7.30;;;;;;;;;;4979604;28;20285;-85
2023/03/18 01:18:51;;;;;;;9.98;8.75;;;;;;;;;;4980293;28;20246;-86
2023/03/18 01:21:21;;;;;;;10.10;8.45;;;;;;;;;;4948158;28;20299;-85
2023/03/18 01:23:55;;;;;;;10.10;8.30;;;;;;;;;;4981565;28;20199;-85
2023/03/18 01:26:25;;;;;;;10.50;7.00;;;;;;;;;;4980219;28;20204;-86
2023/03/18 01:28:57;;;;;;;13.07;7.40;;;;;;;;;;4964651;28;20268;-86
2023/03/18 01:31:25;;;;;;;12.35;6.53;;;;;;;;;;4979408;28;20199;-85
2023/03/18 01:33:56;;;;;;;10.77;7.75;;;;;;;;;;4962581;28;20191;-85
2023/03/18 01:36:24;;;;;;;14.23;7.05;;;;;;;;;;4963303;28;20274;-85
2023/03/18 01:39:05;;;;;;;7.20;6.32;;;;;;;;;;4962702;28;20257;-85
2023/03/18 01:41:35;;;;;;;7.10;6.40;;;;;;;;;;4964121;28;20191;-85
2023/03/18 01:44:05;;;;;;;8.77;6.90;;;;;;;;;;4963090;28;20195;-86
2023/03/18 01:46:35;;;;;;;7.85;6.15;;;;;;;;;;4962907;28;20204;-85
2023/03/18 01:49:05;;;;;;;10.40;6.35;;;;;;;;;;4959739;29;20580;-84
2023/03/18 01:51:34;;;;;;;11.18;6.43;;;;;;;;;;4944847;29;20625;-85
2023/03/18 01:54:04;;;;;;;7.45;6.50;;;;;;;;;;4944557;29;20657;-85
2023/03/18 01:56:35;;;;;;;7.40;6.70;;;;;;;;;;4944632;29;20279;-86
2023/03/18 01:59:06;;;;;;;10.73;7.97;;;;;;;;;;4929090;29;20279;-85
2023/03/18 02:01:41;;;;;;;6.80;6.13;;;;;;;;;;4928714;29;20187;-86
2023/03/18 02:04:10;;;;;;;9.10;6.32;;;;;;;;;;4961144;29;20275;-86
2023/03/18 02:06:41;;;;;;;7.95;6.35;;;;;;;;;;4944233;29;20768;-86
2023/03/18 02:09:09;;;;;;;8.23;6.50;;;;;;;;;;4929221;29;20204;-84
2023/03/18 02:11:40;;;;;;;9.73;6.97;;;;;;;;;;4924781;29;20267;-85
2023/03/18 02:14:12;;;;;;;11.68;6.28;;;;;;;;;;4942327;28;20244;-85
2023/03/18 02:16:44;;;;;;;7.53;6.60;;;;;;;;;;4980971;28;20639;-84
2023/03/18 02:19:31;;;;;;;8.73;5.93;;;;;;;;;;4965406;28;20318;-84
2023/03/18 02:22:06;;;;;;;8.63;7.38;;;;;;;;;;4965167;28;20282;-83
2023/03/18 02:24:40;;;;;;;6.88;6.22;;;;;;;;;;4981521;28;20322;-83
2023/03/18 02:27:19;;;;;;;9.80;6.65;;;;;;;;;;4963789;28;20695;-85
2023/03/18 02:29:49;;;;;;;7.63;6.93;;;;;;;;;;4980106;28;20297;-84
2023/03/18 02:32:21;;;;;;;8.68;6.28;;;;;;;;;;4963682;28;20278;-84
2023/03/18 02:34:49;;;;;;;5.80;5.20;;;;;;;;;;4964809;28;20318;-85
2023/03/18 02:37:18;;;;;;;8.13;5.95;;;;;;;;;;4999847;28;20259;-84
2023/03/18 02:39:47;;;;;;;6.13;4.38;;;;;;;;;;4982228;28;20703;-84
2023/03/18 02:42:17;;;;;;;7.00;5.10;;;;;;;;;;4966763;28;20282;-84
2023/03/18 02:44:53;;;;;;;5.65;4.47;;;;;;;;;;4982638;28;20660;-84
2023/03/18 02:47:50;;;;;;;6.70;5.28;;;;;;;;;;4969545;28;20289;-84
2023/03/18 02:50:19;;;;;;;6.03;5.30;;;;;;;;;;5000120;28;20297;-84
2023/03/18 02:52:48;;;;;;;7.35;5.90;;;;;;;;;;4982189;28;20301;-84
2023/03/18 02:55:16;;;;;;;5.93;5.38;;;;;;;;;;4966101;28;20258;-85
2023/03/18 02:57:45;;;;;;;6.15;5.65;;;;;;;;;;4965610;28;20214;-85
2023/03/18 03:00:15;;;;;;;6.55;5.60;;;;;;;;;;4982505;28;20305;-84
2023/03/18 03:02:44;;;;;;;5.78;5.18;;;;;;;;;;4981204;28;20631;-84
2023/03/18 03:05:12;;;;;;;8.75;5.68;;;;;;;;;;4999082;28;20266;-84
2023/03/18 03:07:41;;;;;;;5.95;5.40;;;;;;;;;;4978997;28;20355;-84
2023/03/18 03:10:11;;;;;;;5.85;4.80;;;;;;;;;;4962951;28;20643;-84
2023/03/18 03:12:41;;;;;;;5.72;5.28;;;;;;;;;;4979374;28;20278;-84
2023/03/18 03:15:12;;;;;;;6.82;4.97;;;;;;;;;;4962729;28;20274;-84
2023/03/18 03:17:48;;;;;;;5.78;5.22;;;;;;;;;;4963373;28;20582;-84
2023/03/18 03:20:19;;;;;;;6.32;5.40;;;;;;;;;;4979853;28;20642;-85
2023/03/18 03:22:47;;;;;;;6.78;5.38;;;;;;;;;;4980384;28;20191;-85
2023/03/18 03:25:19;;;;;;;5.10;4.70;;;;;;;;;;4980372;28;20182;-84
2023/03/18 03:27:48;;;;;;;6.15;5.47;;;;;;;;;;4979876;28;20268;-84
2023/03/18 03:30:17;;;;;;;5.30;4.80;;;;;;;;;;4977738;28;20294;-85
2023/03/18 03:32:46;;;;;;;5.70;5.18;;;;;;;;;;4978322;28;20914;-85
2023/03/18 03:35:16;;;;;;;5.40;4.90;;;;;;;;;;4975855;28;20297;-85
2023/03/18 03:37:45;;;;;;;6.40;4.65;;;;;;;;;;4960854;28;20266;-84
2023/03/18 03:40:15;;;;;;;4.80;4.40;;;;;;;;;;4977809;28;20223;-83
2023/03/18 03:42:45;;;;;;;8.88;4.90;;;;;;;;;;4964943;28;20171;-83
2023/03/18 03:45:15;;;;;;;5.40;4.10;;;;;;;;;;4965949;28;20282;-86
2023/03/18 03:47:45;;;;;;;7.32;4.65;;;;;;;;;;4982239;28;20294;-84
2023/03/18 03:50:14;;;;;;;5.78;4.97;;;;;;;;;;4982254;28;20595;-84
2023/03/18 03:52:47;;;;;;;5.45;4.95;;;;;;;;;;4965196;28;20251;-82
2023/03/18 03:55:17;;;;;;;5.30;4.90;;;;;;;;;;4965761;28;20264;-83
2023/03/18 03:57:45;;;;;;;7.22;5.30;;;;;;;;;;4965931;28;20294;-84
2023/03/18 04:00:15;;;;;;;5.10;4.90;;;;;;;;;;4966072;28;20283;-84
2023/03/18 04:02:50;;;;;;;5.97;5.68;;;;;;;;;;4965450;28;20274;-84
2023/03/18 04:05:22;;;;;;;5.93;5.43;;;;;;;;;;4949858;28;20694;-84
2023/03/18 04:07:54;;;;;;;6.13;5.82;;;;;;;;;;4961414;28;20295;-83
2023/03/18 04:10:35;;;;;;;6.60;6.10;;;;;;;;;;4946478;29;20247;-84
2023/03/18 04:13:05;;;;;;;7.38;6.97;;;;;;;;;;4947436;28;20248;-84
2023/03/18 04:15:34;;;;;;;7.10;6.75;;;;;;;;;;4930555;29;20286;-84
2023/03/18 04:18:10;;;;;;;6.45;6.03;;;;;;;;;;4946580;28;20270;-83
2023/03/18 04:20:39;;;;;;;7.90;7.20;;;;;;;;;;4946370;28;20299;-84
2023/03/18 04:23:21;;;;;;;10.68;7.82;;;;;;;;;;4930355;29;20279;-84
2023/03/18 04:25:49;;;;;;;41.47;30.02;;;;;;;;;;4962627;28;20335;-84
2023/03/18 04:28:18;;;;;;;13.32;12.05;;;;;;;;;;4945937;29;20295;-84
2023/03/18 04:30:46;;;;;;;23.93;18.10;;;;;;;;;;4963342;28;20768;-84
2023/03/18 04:33:18;;;;;;;10.63;9.00;;;;;;;;;;4930947;29;20657;-84
2023/03/18 04:35:48;;;;;;;6.88;6.20;;;;;;;;;;4945801;28;20746;-84
2023/03/18 04:38:18;;;;;;;13.02;11.30;;;;;;;;;;4945918;29;20291;-84
2023/03/18 04:40:51;;;;;;;10.88;9.93;;;;;;;;;;4962897;29;20212;-84
2023/03/18 04:43:19;;;;;;;7.82;7.22;;;;;;;;;;4949662;28;20270;-84
2023/03/18 04:45:50;;;;;;;15.13;10.68;;;;;;;;;;4966474;28;20275;-85
2023/03/18 04:48:19;;;;;;;6.60;6.00;;;;;;;;;;4950297;28;20263;-85
2023/03/18 04:50:48;;;;;;;6.32;5.85;;;;;;;;;;4946335;29;20211;-84
2023/03/18 04:53:22;;;;;;;12.13;10.65;;;;;;;;;;4957294;28;20202;-85
2023/03/18 04:55:52;;;;;;;6.43;5.93;;;;;;;;;;4982491;28;20230;-85
2023/03/18 04:58:25;;;;;;;7.80;6.97;;;;;;;;;;4969787;28;20246;-85
2023/03/18 05:01:22;;;;;;;46.72;29.52;;;;;;;;;;4967734;28;20307;-84
2023/03/18 05:03:51;;;;;;;23.40;16.92;;;;;;;;;;4963259;28;20195;-84
2023/03/18 05:06:23;;;;;;;10.70;9.65;;;;;;;;;;4946395;29;20203;-85
2023/03/18 05:08:57;;;;;;;22.58;14.70;;;;;;;;;;4975600;28;20302;-83
2023/03/18 05:11:30;;;;;;;7.75;7.15;;;;;;;;;;4964076;28;20196;-84
2023/03/18 05:14:01;;;;;;;9.50;7.75;;;;;;;;;;4979340;28;20191;-84
2023/03/18 05:16:35;;;;;;;9.88;7.57;;;;;;;;;;4980239;28;20188;-83
2023/03/18 05:19:04;;;;;;;8.25;7.40;;;;;;;;;;4980042;28;20242;-84
2023/03/18 05:21:33;;;;;;;9.38;7.90;;;;;;;;;;4963968;28;20219;-85
2023/03/18 05:24:02;;;;;;;47.47;32.33;;;;;;;;;;4957286;29;20284;-85
2023/03/18 05:26:37;;;;;;;27.27;18.17;;;;;;;;;;4934882;28;20273;-84
2023/03/18 05:29:09;;;;;;;31.13;20.70;;;;;;;;;;4961865;28;20196;-85
2023/03/18 05:31:53;;;;;;;16.55;12.75;;;;;;;;;;4947668;28;20239;-85
2023/03/18 05:34:22;;;;;;;14.63;11.25;;;;;;;;;;4953538;29;20240;-84
2023/03/18 05:36:51;;;;;;;10.00;8.57;;;;;;;;;;4941272;29;20220;-84
2023/03/18 05:39:19;;;;;;;6.30;5.57;;;;;;;;;;4939832;29;20263;-84
2023/03/18 05:41:49;;;;;;;9.35;5.90;;;;;;;;;;4939360;29;20256;-84
2023/03/18 05:44:25;;;;;;;7.60;7.00;;;;;;;;;;4923627;29;20342;-84
2023/03/18 05:46:54;;;;;;;6.05;5.53;;;;;;;;;;4940030;29;20213;-84
2023/03/18 05:49:36;;;;;;;6.85;6.22;;;;;;;;;;4938823;29;20248;-84
2023/03/18 05:52:23;;;;;;;5.65;5.15;;;;;;;;;;4923869;29;20185;-84
2023/03/18 05:54:54;;;;;;;7.28;5.60;;;;;;;;;;4939298;29;20200;-83
2023/03/18 05:57:29;;;;;;;6.25;5.65;;;;;;;;;;4941967;29;20317;-84
2023/03/18 06:00:01;;;;;;;11.48;6.30;;;;;;;;;;4924331;29;20611;-84
2023/03/18 06:02:34;;;;;;;7.45;6.85;;;;;;;;;;4939060;28;20217;-84
2023/03/18 06:05:02;;;;;;;8.52;7.70;;;;;;;;;;4940701;29;20209;-84
2023/03/18 06:07:31;;;;;;;12.05;7.22;;;;;;;;;;4939577;29;20288;-84
2023/03/18 06:09:59;;;;;;;8.23;6.20;;;;;;;;;;4941822;29;20566;-84
2023/03/18 06:12:29;;;;;;;5.45;5.07;;;;;;;;;;4940690;29;20291;-84
2023/03/18 06:14:59;;;;;;;5.30;5.00;;;;;;;;;;4941588;29;20276;-83
2023/03/18 06:17:28;;;;;;;5.85;5.50;;;;;;;;;;4940615;29;20227;-84
2023/03/18 06:19:57;;;;;;;6.53;6.03;;;;;;;;;;4940689;29;20265;-84
2023/03/18 06:22:26;;;;;;;5.60;5.20;;;;;;;;;;4940295;29;20309;-84
2023/03/18 06:24:54;;;;;;;6.13;5.55;;;;;;;;;;4939793;29;20288;-85
2023/03/18 06:27:23;;;;;;;5.18;4.85;;;;;;;;;;4928178;29;20257;-84
2023/03/18 06:30:01;;;;;;;4.90;4.70;;;;;;;;;;4935885;29;20195;-84
2023/03/18 06:32:30;;;;;;;5.68;5.28;;;;;;;;;;4924519;29;20366;-84
2023/03/18 06:34:59;;;;;;;6.82;4.75;;;;;;;;;;4940346;28;20314;-83
2023/03/18 06:37:28;;;;;;;4.50;4.30;;;;;;;;;;4940223;29;20331;-84
2023/03/18 06:39:57;;;;;;;5.28;4.97;;;;;;;;;;4940612;29;20343;-85
2023/03/18 06:42:26;;;;;;;5.35;4.72;;;;;;;;;;4941644;29;20307;-84
2023/03/18 06:45:02;;;;;;;5.50;5.10;;;;;;;;;;4940381;29;20284;-84
2023/03/18 06:47:43;;;;;;;5.85;4.22;;;;;;;;;;4940977;29;20204;-84
2023/03/18 06:50:12;;;;;;;6.40;4.95;;;;;;;;;;4941650;29;20291;-84
2023/03/18 06:52:41;;;;;;;4.63;4.32;;;;;;;;;;4940702;29;20688;-83
2023/03/18 06:55:13;;;;;;;4.50;4.10;;;;;;;;;;4921561;29;20280;-85
2023/03/18 06:57:45;;;;;;;4.97;4.68;;;;;;;;;;4920767;29;20197;-84
2023/03/18 07:00:20;;;;;;;5.15;4.68;;;;;;;;;;4921295;29;20189;-83
2023/03/18 07:02:49;;;;;;;7.35;5.28;;;;;;;;;;4920208;29;20210;-84
2023/03/18 07:05:19;;;;;;;5.70;5.18;;;;;;;;;;4928858;29;20329;-84
2023/03/18 07:07:48;;;;;;;5.30;5.10;;;;;;;;;;4920528;29;20257;-84
2023/03/18 07:10:19;;;;;;;6.60;5.97;;;;;;;;;;4921020;29;20292;-84
2023/03/18 07:12:47;;;;;;;8.80;5.82;;;;;;;;;;4920631;29;20228;-84
2023/03/18 07:15:21;;;;;;;5.85;5.45;;;;;;;;;;4921866;29;20199;-84
2023/03/18 07:17:52;;;;;;;6.55;5.95;;;;;;;;;;4939325;29;20204;-83
2023/03/18 07:20:22;;;;;;;6.40;5.90;;;;;;;;;;4940161;29;20269;-84
2023/03/18 07:22:51;;;;;;;5.80;5.40;;;;;;;;;;4909534;29;20302;-84
2023/03/18 07:25:19;;;;;;;6.80;6.30;;;;;;;;;;4925026;29;20591;-84
2023/03/18 07:27:48;;;;;;;9.43;6.63;;;;;;;;;;4930712;29;20670;-86
2023/03/18 07:30:20;;;;;;;7.47;6.85;;;;;;;;;;4934941;29;20602;-85
2023/03/18 07:32:50;;;;;;;8.13;7.67;;;;;;;;;;4927697;29;20279;-85
2023/03/18 07:35:19;;;;;;;7.27;6.83;;;;;;;;;;4940116;29;20743;-85
2023/03/18 07:37:48;;;;;;;7.17;6.67;;;;;;;;;;4944467;29;20699;-85
2023/03/18 07:40:16;;;;;;;7.67;7.03;;;;;;;;;;4942875;29;20696;-86
2023/03/18 07:42:44;;;;;;;7.40;7.10;;;;;;;;;;4943597;29;20874;-84
2023/03/18 07:45:14;;;;;;;8.93;7.83;;;;;;;;;;4942389;29;21089;-84
2023/03/18 07:47:42;;;;;;;8.30;7.60;;;;;;;;;;4942047;29;21062;-84
2023/03/18 07:50:12;;;;;;;8.20;7.60;;;;;;;;;;4942521;29;20606;-84
2023/03/18 07:52:41;;;;;;;8.20;7.23;;;;;;;;;;4945935;29;20690;-86
2023/03/18 07:55:10;;;;;;;8.17;7.57;;;;;;;;;;4903598;29;20735;-86
2023/03/18 07:57:39;;;;;;;8.73;8.23;;;;;;;;;;4939691;29;20640;-85
2023/03/18 08:00:15;;;;;;;9.33;8.73;;;;;;;;;;4916851;29;20775;-85
2023/03/18 08:02:44;;;;;;;8.20;7.80;;;;;;;;;;4926659;29;20638;-86
2023/03/18 08:05:14;;;;;;;8.33;7.97;;;;;;;;;;4943190;29;20783;-85
2023/03/18 08:07:42;;;;;;;8.53;7.83;;;;;;;;;;4943103;29;20722;-85
2023/03/18 08:10:13;;;;;;;8.60;7.93;;;;;;;;;;4932838;29;20708;-85
2023/03/18 08:12:42;;;;;;;8.20;7.80;;;;;;;;;;4943711;29;20691;-84
2023/03/18 08:15:11;;;;;;;8.63;8.23;;;;;;;;;;4944348;29;20688;-84
2023/03/18 08:17:40;;;;;;;8.63;7.97;;;;;;;;;;4943371;29;20729;-84
2023/03/18 08:20:11;;;;;;;8.80;8.40;;;;;;;;;;4940793;29;20685;-84
2023/03/18 08:22:40;;;;;;;9.70;8.70;;;;;;;;;;4919662;29;20718;-85
2023/03/18 08:25:10;;;;;;;9.50;9.07;;;;;;;;;;4943771;29;20707;-86
2023/03/18 08:27:38;;;;;;;9.60;8.90;;;;;;;;;;4922431;29;20629;-86
2023/03/18 08:30:08;;;;;;;9.60;9.10;;;;;;;;;;4926741;29;20627;-85
2023/03/18 08:32:37;;;;;;;9.90;9.33;;;;;;;;;;4943284;29;20591;-86
2023/03/18 08:35:05;;;;;;;10.07;9.43;;;;;;;;;;4964650;28;20716;-86
2023/03/18 08:37:34;;;;;;;10.23;9.83;;;;;;;;;;4946811;28;20645;-86
2023/03/18 08:40:04;;;;;;;10.30;9.90;;;;;;;;;;4948784;28;21225;-87
2023/03/18 08:42:33;;;;;;;9.90;9.43;;;;;;;;;;4981246;28;20746;-86
2023/03/18 08:45:01;;;;;;;10.47;9.80;;;;;;;;;;4981634;28;21126;-85
2023/03/18 08:47:31;;;;;;;10.30;9.67;;;;;;;;;;4972843;28;20709;-86
2023/03/18 08:49:59;;;;;;;10.53;10.03;;;;;;;;;;4981586;28;20713;-85
2023/03/18 08:52:27;;;;;;;10.23;9.83;;;;;;;;;;4965203;28;20692;-85
2023/03/18 08:54:56;;;;;;;10.63;10.17;;;;;;;;;;4981700;28;20734;-85
2023/03/18 08:57:26;;;;;;;10.53;10.03;;;;;;;;;;4948098;28;21143;-85
2023/03/18 08:59:54;;;;;;;11.00;10.30;;;;;;;;;;4980730;28;20850;-85
2023/03/18 09:02:23;;;;;;;10.57;10.17;;;;;;;;;;4981041;28;20702;-85
2023/03/18 09:04:52;;;;;;;11.10;10.60;;;;;;;;;;4960782;28;20607;-86
2023/03/18 09:07:21;;;;;;;10.83;10.30;;;;;;;;;;4964430;28;20762;-86
2023/03/18 09:09:49;;;;;;;11.50;10.50;;;;;;;;;;4944683;29;20622;-87
2023/03/18 09:12:18;;;;;;;12.27;11.40;;;;;;;;;;4943318;28;20706;-84
2023/03/18 09:14:48;;;;;;;11.07;10.57;;;;;;;;;;4981834;28;20711;-85
2023/03/18 09:17:16;;;;;;;11.37;10.60;;;;;;;;;;4964057;28;20698;-86
2023/03/18 09:19:44;;;;;;;12.63;11.60;;;;;;;;;;4964249;28;20622;-86
2023/03/18 09:22:13;;;;;;;11.87;11.27;;;;;;;;;;4964561;28;20619;-86
2023/03/18 09:24:41;;;;;;;12.03;11.30;;;;;;;;;;4963256;28;20674;-86
2023/03/18 09:27:10;;;;;;;11.70;10.87;;;;;;;;;;4963216;28;20599;-85
2023/03/18 09:29:38;;;;;;;11.17;10.67;;;;;;;;;;4959092;28;20621;-85
2023/03/18 09:32:08;;;;;;;11.83;11.13;;;;;;;;;;4947032;28;20618;-84
2023/03/18 09:34:36;;;;;;;10.37;9.87;;;;;;;;;;4962717;28;20703;-84
2023/03/18 09:37:05;;;;;;;11.27;10.73;;;;;;;;;;4947360;28;20606;-83
2023/03/18 09:39:33;;;;;;;10.63;10.23;;;;;;;;;;4962233;28;21284;-85
2023/03/18 09:42:10;;;;;;;11.40;10.90;;;;;;;;;;4981993;28;20753;-85
2023/03/18 09:44:39;;;;;;;11.77;11.17;;;;;;;;;;4978634;28;21275;-85
2023/03/18 09:47:20;;;;;;;12.37;11.17;;;;;;;;;;4979233;28;20706;-85
2023/03/18 09:50:01;;;;;;;12.33;11.63;;;;;;;;;;4964441;28;20664;-85
2023/03/18 09:52:32;;;;;;;12.30;11.47;;;;;;;;;;4965854;28;20652;-84
2023/03/18 09:55:02;;;;;;;11.50;11.10;;;;;;;;;;4983181;28;20619;-85
2023/03/18 09:57:33;;;;;;;12.40;11.80;;;;;;;;;;4983771;28;20705;-85
2023/03/18 10:00:05;;;;;;;11.20;10.70;;;;;;;;;;4963522;28;20706;-85
2023/03/18 10:02:44;;;;;;;12.13;11.47;;;;;;;;;;4962538;28;21203;-85
2023/03/18 10:05:20;;;;;;;11.97;11.17;;;;;;;;;;4947183;28;21470;-84
2023/03/18 10:07:50;;;;;;;12.17;11.60;;;;;;;;;;4979261;28;20781;-84
2023/03/18 10:10:24;;;;;;;12.17;11.57;;;;;;;;;;4981038;28;20660;-85
2023/03/18 10:13:05;;;;;;;12.30;11.70;;;;;;;;;;4947576;28;20650;-85
2023/03/18 10:15:44;;;;;;;12.93;12.20;;;;;;;;;;4946493;29;20726;-86
2023/03/18 10:18:18;;;;;;;12.73;11.93;;;;;;;;;;4946693;28;20689;-85
2023/03/18 10:20:57;;;;;;;12.90;12.20;;;;;;;;;;4984742;28;20721;-83
2023/03/18 10:23:35;;;;;;;12.37;11.80;;;;;;;;;;4967437;28;20726;-83
2023/03/18 10:26:05;;;;;;;12.13;11.43;;;;;;;;;;4949447;29;20665;-83
2023/03/18 10:28:41;;;;;;;11.77;11.17;;;;;;;;;;4974882;28;20599;-83
2023/03/18 10:31:24;;;;;;;12.73;11.70;;;;;;;;;;4971105;29;20617;-83
2023/03/18 10:33:58;;;;;;;13.23;12.53;;;;;;;;;;4971820;28;20617;-83
2023/03/18 10:36:33;;;;;;;12.37;11.77;;;;;;;;;;4975374;28;20667;-82
2023/03/18 10:39:03;;;;;;;12.40;11.70;;;;;;;;;;4960726;28;20651;-82
2023/03/18 10:41:33;;;;;;;12.50;11.80;;;;;;;;;;4981915;28;20686;-83
2023/03/18 10:44:03;;;;;;;13.00;12.10;;;;;;;;;;4977452;28;20685;-84
2023/03/18 10:46:32;;;;;;;12.30;11.70;;;;;;;;;;4950932;28;21247;-83
2023/03/18 10:49:07;;;;;;;11.83;11.33;;;;;;;;;;4966191;28;20707;-85
2023/03/18 10:51:42;;;;;;;12.03;11.43;;;;;;;;;;4954323;28;20608;-85
2023/03/18 10:54:14;;;;;;;12.60;12.00;;;;;;;;;;4978784;28;20753;-85
2023/03/18 10:56:47;;;;;;;12.73;12.13;;;;;;;;;;4957430;28;20722;-84
2023/03/18 10:59:17;;;;;;;14.03;12.93;;;;;;;;;;4962347;28;21142;-85
2023/03/18 11:01:46;;;;;;;12.63;11.73;;;;;;;;;;4973832;28;20699;-84
2023/03/18 11:04:20;;;;;;;11.80;11.20;;;;;;;;;;4962295;28;21089;-84
2023/03/18 11:06:51;;;;;;;12.07;11.47;;;;;;;;;;4962523;28;20696;-84
2023/03/18 11:09:21;;;;;;;11.80;11.30;;;;;;;;;;4962616;28;20722;-84
2023/03/18 11:11:50;;;;;;;12.20;11.70;;;;;;;;;;4946947;28;20685;-84
2023/03/18 11:14:21;;;;;;;12.37;11.80;;;;;;;;;;4981470;28;20737;-85
2023/03/18 11:16:56;;;;;;;12.60;12.10;;;;;;;;;;4982331;28;20599;-84
2023/03/18 11:19:31;;;;;;;12.90;12.30;;;;;;;;;;4961894;28;20718;-85
2023/03/18 11:22:03;;;;;;;13.20;12.50;;;;;;;;;;4976925;28;20614;-84
2023/03/18 11:24:41;;;;;;;12.93;12.40;;;;;;;;;;4954847;28;20697;-86
2023/03/18 11:27:25;;;;;;;13.10;12.40;;;;;;;;;;4968987;28;21289;-85
2023/03/18 11:29:55;;;;;;;13.20;12.70;;;;;;;;;;4961918;28;20678;-85
2023/03/18 11:32:26;;;;;;;13.73;12.83;;;;;;;;;;4976374;28;20737;-86
2023/03/18 11:35:00;;;;;;;13.20;12.57;;;;;;;;;;4974717;28;20746;-85
2023/03/18 11:37:33;;;;;;;12.47;11.87;;;;;;;;;;4957722;28;20609;-85
2023/03/18 11:40:18;;;;;;;13.10;12.40;;;;;;;;;;4960158;28;20717;-85
2023/03/18 11:42:47;;;;;;;13.93;13.00;;;;;;;;;;4944292;28;20709;-85
2023/03/18 11:45:31;;;;;;;13.70;13.00;;;;;;;;;;4979745;28;20770;-85
2023/03/18 11:48:00;;;;;;;12.87;12.30;;;;;;;;;;4961156;28;21218;-85
2023/03/18 11:50:34;;;;;;;12.60;11.90;;;;;;;;;;4959526;29;21023;-86
2023/03/18 11:53:06;;;;;;;12.83;12.13;;;;;;;;;;4960051;28;20603;-86
2023/03/18 11:55:38;;;;;;;13.27;12.60;;;;;;;;;;4974684;28;20620;-84
2023/03/18 11:58:21;;;;;;;13.33;12.67;;;;;;;;;;4974412;28;21220;-84
2023/03/18 12:00:55;;;;;;;12.27;11.63;;;;;;;;;;4920541;28;20723;-85
2023/03/18 12:03:41;;;;;;;12.40;11.80;;;;;;;;;;4961321;28;20773;-85
2023/03/18 12:06:15;;;;;;;12.60;11.90;;;;;;;;;;4949325;28;20678;-84
2023/03/18 12:08:47;;;;;;;12.30;11.80;;;;;;;;;;4974642;28;20714;-84
2023/03/18 12:11:19;;;;;;;13.07;12.37;;;;;;;;;;4946131;28;20760;-84
2023/03/18 12:14:02;;;;;;;12.50;11.90;;;;;;;;;;4980222;28;20689;-84
2023/03/18 12:16:40;;;;;;;12.50;12.00;;;;;;;;;;4965678;28;20689;-84
2023/03/18 12:19:16;;;;;;;12.80;12.00;;;;;;;;;;4983972;28;20726;-85
2023/03/18 12:21:52;;;;;;;12.77;11.87;;;;;;;;;;4966321;28;20737;-84
2023/03/18 12:24:33;;;;;;;12.00;11.50;;;;;;;;;;4983155;28;20733;-84
2023/03/18 12:27:05;;;;;;;12.20;11.70;;;;;;;;;;4963752;28;20730;-84
2023/03/18 12:29:50;;;;;;;12.30;11.80;;;;;;;;;;4978728;28;20623;-84
2023/03/18 12:32:25;;;;;;;12.50;11.60;;;;;;;;;;4960775;28;20693;-85
2023/03/18 12:35:09;;;;;;;12.50;12.00;;;;;;;;;;4948742;28;20732;-85
2023/03/18 12:37:49;;;;;;;12.93;12.10;;;;;;;;;;4982221;28;20776;-85
2023/03/18 12:40:21;;;;;;;12.80;12.30;;;;;;;;;;4963700;29;21237;-84
2023/03/18 12:42:55;;;;;;;12.70;12.10;;;;;;;;;;4951413;28;20706;-85
2023/03/18 12:45:26;;;;;;;13.40;12.80;;;;;;;;;;4982075;28;20651;-84
2023/03/18 12:47:56;;;;;;;12.37;11.73;;;;;;;;;;4979021;28;20811;-85
2023/03/18 12:50:26;;;;;;;12.77;12.27;;;;;;;;;;4963210;28;20710;-84
2023/03/18 12:53:00;;;;;;;13.00;12.40;;;;;;;;;;4961117;28;20674;-84
2023/03/18 12:55:30;;;;;;;13.17;12.37;;;;;;;;;;4973527;28;21199;-83
2023/03/18 12:58:00;;;;;;;11.93;11.43;;;;;;;;;;4975404;28;20741;-84
2023/03/18 13:00:31;;;;;;;14.50;13.50;;;;;;;;;;4979468;28;20710;-85
2023/03/18 13:03:02;;;;;;;13.97;13.27;;;;;;;;;;4958179;28;20693;-84
2023/03/18 13:05:35;;;;;;;14.07;13.47;;;;;;;;;;4975054;28;21197;-86
2023/03/18 13:08:17;;;;;;;13.00;12.50;;;;;;;;;;4974261;28;20779;-84
2023/03/18 13:10:48;;;;;;;13.27;12.57;;;;;;;;;;4979246;28;20627;-84
2023/03/18 13:13:16;;;;;;;14.27;13.57;;;;;;;;;;4958909;28;20603;-84
2023/03/18 13:15:48;;;;;;;13.73;13.03;;;;;;;;;;4972325;28;20979;-85
2023/03/18 13:18:20;;;;;;;12.90;12.30;;;;;;;;;;4967020;28;20615;-85
2023/03/18 13:20:48;;;;;;;13.80;13.10;;;;;;;;;;4963785;28;20705;-85
2023/03/18 13:23:38;;;;;;;13.37;12.77;;;;;;;;;;4976080;28;20761;-83
2023/03/18 13:26:14;;;;;;;13.47;12.80;;;;;;;;;;4946954;28;21434;-84
2023/03/18 13:28:55;;;;;;;13.07;12.37;;;;;;;;;;4963648;28;21278;-84
2023/03/18 13:31:29;;;;;;;13.60;13.00;;;;;;;;;;4959215;28;21777;-85
2023/03/18 13:34:14;;;;;;;14.30;13.40;;;;;;;;;;4985200;28;20713;-85
2023/03/18 13:36:57;;;;;;;13.33;12.73;;;;;;;;;;4962296;28;20706;-84
2023/03/18 13:39:44;;;;;;;12.50;12.00;;;;;;;;;;4958741;29;20698;-84
2023/03/18 13:42:22;;;;;;;13.17;12.47;;;;;;;;;;4956999;28;20662;-84
2023/03/18 13:44:55;;;;;;;13.70;13.10;;;;;;;;;;4979989;28;20702;-84
2023/03/18 13:47:24;;;;;;;13.13;12.53;;;;;;;;;;4946917;28;20668;-85
2023/03/18 13:50:00;;;;;;;13.50;12.60;;;;;;;;;;4963869;28;20629;-85
2023/03/18 13:52:33;;;;;;;13.17;12.57;;;;;;;;;;4962332;28;20664;-84
2023/03/18 13:55:03;;;;;;;12.80;12.10;;;;;;;;;;4957623;28;20653;-84
2023/03/18 13:57:49;;;;;;;14.33;13.50;;;;;;;;;;4963677;28;20689;-84
2023/03/18 14:00:33;;;;;;;13.90;13.20;;;;;;;;;;4976856;28;20583;-85
2023/03/18 14:03:15;;;;;;;12.90;12.33;;;;;;;;;;4969421;28;20610;-86
2023/03/18 14:05:45;;;;;;;13.10;12.23;;;;;;;;;;4956673;28;21224;-86
2023/03/18 14:08:32;;;;;;;13.33;12.83;;;;;;;;;;4960866;28;20726;-87
2023/03/18 14:11:27;;;;;;;14.13;13.10;;;;;;;;;;4961333;28;20715;-87
2023/03/18 14:13:59;;;;;;;14.13;13.33;;;;;;;;;;4935533;28;20626;-86
2023/03/18 14:16:30;;;;;;;13.70;12.90;;;;;;;;;;4947570;28;20713;-86
2023/03/18 14:19:02;;;;;;;14.13;13.33;;;;;;;;;;4943457;28;21180;-86
2023/03/18 14:21:31;;;;;;;14.07;13.27;;;;;;;;;;4960658;28;20702;-87
2023/03/18 14:24:03;;;;;;;13.63;13.13;;;;;;;;;;4957712;28;20735;-86
2023/03/18 14:26:32;;;;;;;14.10;13.50;;;;;;;;;;4939338;28;21094;-88
2023/03/18 14:29:15;;;;;;;13.83;13.20;;;;;;;;;;4959901;28;21052;-87
2023/03/18 14:31:56;;;;;;;13.50;12.90;;;;;;;;;;4971746;28;20611;-87
2023/03/18 14:34:26;;;;;;;14.03;13.27;;;;;;;;;;4937679;29;21161;-87
2023/03/18 14:37:15;;;;;;;13.70;13.00;;;;;;;;;;4938479;29;20652;-89
2023/03/18 14:39:45;;;;;;;13.40;12.90;;;;;;;;;;4939892;29;20661;-87
2023/03/18 14:42:15;;;;;;;13.17;12.60;;;;;;;;;;4939538;29;20689;-87
2023/03/18 14:44:45;;;;;;;14.00;13.13;;;;;;;;;;4938538;29;20748;-86
2023/03/18 14:47:19;;;;;;;13.60;13.00;;;;;;;;;;4919372;29;20594;-86
2023/03/18 14:49:50;;;;;;;13.73;12.73;;;;;;;;;;4924902;29;21238;-86
2023/03/18 14:52:26;;;;;;;12.37;11.67;;;;;;;;;;4936106;29;21251;-87
2023/03/18 14:54:55;;;;;;;13.73;12.93;;;;;;;;;;4921464;29;20620;-87
2023/03/18 14:57:23;;;;;;;14.10;13.30;;;;;;;;;;4922119;29;20765;-86